This is the latest recevied weather packets stored in our database for station/object KD7CIH. If no packets are shown the sender has not sent any weather packets the latest 10 day(s).
| Time | Temp. | Humidity | Pressure | Rain* | Wind** | Luminosity | Snow |
|---|---|---|---|---|---|---|---|
| 1787727907 | 15° C | 65% | 1023.1 hPa | 0 mm | - | - | - |
| 1787727608 | 15° C | 63% | 1023 hPa | 0 mm | - | - | - |
| 1787727307 | 15° C | 62% | 1023.1 hPa | 0 mm | - | - | - |
| 1787727134 | 15° C | 61% | 1023.1 hPa | 0 mm | - | - | - |
| 1787726707 | 15° C | 62% | 1023.1 hPa | 0 mm | - | - | - |
| 1787726409 | 15.56° C | 62% | 1023.1 hPa | 0 mm | - | - | - |
| 1787726107 | 15.56° C | 61% | 1023 hPa | 0 mm | - | - | - |
| 1787725809 | 15.56° C | 62% | 1023.1 hPa | 0 mm | - | - | - |
| 1787725508 | 16.11° C | 59% | 1023.1 hPa | 0 mm | - | - | - |
| 1787725206 | 16.67° C | 58% | 1023.1 hPa | 0 mm | - | - | - |
| 1787724908 | 17.22° C | 54% | 1023 hPa | 0 mm | - | - | - |
| 1787724737 | 17.22° C | 53% | 1023.1 hPa | 0 mm | - | - | - |
| 1787724307 | 17.22° C | 53% | 1023 hPa | 0 mm | - | - | - |
| 1787724006 | 17.22° C | 53% | 1023.1 hPa | 0 mm | - | - | - |
| 1787723834 | 17.22° C | 54% | 1023.1 hPa | 0 mm | - | - | - |
| 1787723406 | 16.67° C | 56% | 1023.1 hPa | 0 mm | - | - | - |
| 1787723109 | 16.67° C | 57% | 1023.1 hPa | 0 mm | - | - | - |
| 1787722808 | 16.67° C | 59% | 1023.1 hPa | 0 mm | - | - | - |
| 1787722508 | 16.67° C | 59% | 1023.3 hPa | 0 mm | - | - | - |
| 1787722333 | 16.67° C | 60% | 1023.3 hPa | 0 mm | - | - | - |
| 1787721907 | 16.67° C | 61% | 1023.3 hPa | 0 mm | - | - | - |
| 1787721610 | 16.11° C | 64% | 1023.3 hPa | 0 mm | - | - | - |
| 1787721309 | 16.11° C | 65% | 1023.3 hPa | 0 mm | - | - | - |
| 1787721008 | 16.11° C | 66% | 1023.4 hPa | 0 mm | - | - | - |
| 1787720708 | 15.56° C | 67% | 1023.5 hPa | 0 mm | - | - | - |
* Rain latest hour (hover to see other rain measurements)
** Current wind speed in m/s (hover to see current wind gust speed)